地図

経路データ

SID SEASON NUMBER BASIN SUBBASIN NAME ISO_TIME NATURE LAT LON WMO_WIND WMO_PRES WMO_AGENCY TRACK_TYPE DIST2LAND LANDFALL IFLAG USA_AGENCY USA_ATCF_ID USA_LAT USA_LON USA_RECORD USA_STATUS USA_WIND USA_PRES USA_SSHS USA_R34_NE USA_R34_SE USA_R34_SW USA_R34_NW USA_R50_NE USA_R50_SE USA_R50_SW USA_R50_NW USA_R64_NE USA_R64_SE USA_R64_SW USA_R64_NW USA_POCI USA_ROCI USA_RMW USA_EYE TOKYO_LAT TOKYO_LON TOKYO_GRADE TOKYO_WIND TOKYO_PRES TOKYO_R50_DIR TOKYO_R50_LONG TOKYO_R50_SHORT TOKYO_R30_DIR TOKYO_R30_LONG TOKYO_R30_SHORT TOKYO_LAND CMA_LAT CMA_LON CMA_CAT CMA_WIND CMA_PRES HKO_LAT HKO_LON HKO_CAT HKO_WIND HKO_PRES NEWDELHI_LAT NEWDELHI_LON NEWDELHI_GRADE NEWDELHI_WIND NEWDELHI_PRES NEWDELHI_CI NEWDELHI_DP NEWDELHI_POCI REUNION_LAT REUNION_LON REUNION_TYPE REUNION_WIND REUNION_PRES REUNION_TNUM REUNION_CI REUNION_RMW REUNION_R34_NE REUNION_R34_SE REUNION_R34_SW REUNION_R34_NW REUNION_R50_NE REUNION_R50_SE REUNION_R50_SW REUNION_R50_NW REUNION_R64_NE REUNION_R64_SE REUNION_R64_SW REUNION_R64_NW BOM_LAT BOM_LON BOM_TYPE BOM_WIND BOM_PRES BOM_TNUM BOM_CI BOM_RMW BOM_R34_NE BOM_R34_SE BOM_R34_SW BOM_R34_NW BOM_R50_NE BOM_R50_SE BOM_R50_SW BOM_R50_NW BOM_R64_NE BOM_R64_SE BOM_R64_SW BOM_R64_NW BOM_ROCI BOM_POCI BOM_EYE BOM_POS_METHOD BOM_PRES_METHOD NADI_LAT NADI_LON NADI_CAT NADI_WIND NADI_PRES WELLINGTON_LAT WELLINGTON_LON WELLINGTON_WIND WELLINGTON_PRES DS824_LAT DS824_LON DS824_STAGE DS824_WIND DS824_PRES TD9636_LAT TD9636_LON TD9636_STAGE TD9636_WIND TD9636_PRES TD9635_LAT TD9635_LON TD9635_WIND TD9635_PRES TD9635_ROCI NEUMANN_LAT NEUMANN_LON NEUMANN_CLASS NEUMANN_WIND NEUMANN_PRES MLC_LAT MLC_LON MLC_CLASS MLC_WIND MLC_PRES USA_GUST BOM_GUST BOM_GUST_PER REUNION_GUST REUNION_GUST_PER USA_SEAHGT USA_SEARAD_NE USA_SEARAD_SE USA_SEARAD_SW USA_SEARAD_NW STORM_SPEED STORM_DIR
1870042S15066 1870 5 SI MM NOT_NAMED 1870-02-11 06:00:00 NR -15.4000 65.6000 reunion main 987 957 _____O________ -1 -15.4000 65.6000 99 9.90000 6 228
1870042S15066 1870 5 SI MM NOT_NAMED 1870-02-11 09:00:00 NR -15.6062 65.3626 main 957 918 _____P________ -1 -15.6062 65.3626 99 6 228
1870042S15066 1870 5 SI MM NOT_NAMED 1870-02-11 12:00:00 NR -15.8105 65.1272 main 918 888 _____P________ -1 -15.8105 65.1272 99 6 228
1870042S15066 1870 5 SI MM NOT_NAMED 1870-02-11 15:00:00 NR -16.0112 64.8964 main 888 858 _____P________ -1 -16.0112 64.8964 99 6 228
1870042S15066 1870 5 SI MM NOT_NAMED 1870-02-11 18:00:00 NR -16.2064 64.6726 main 858 828 _____P________ -1 -16.2064 64.6726 99 6 228
1870042S15066 1870 5 SI MM NOT_NAMED 1870-02-11 21:00:00 NR -16.3946 64.4585 main 828 799 _____P________ -1 -16.3946 64.4585 99 5 227
1870042S15066 1870 5 SI MM NOT_NAMED 1870-02-12 00:00:00 NR -16.5740 64.2567 main 799 774 _____P________ -1 -16.5740 64.2567 99 5 227
1870042S15066 1870 5 SI MM NOT_NAMED 1870-02-12 03:00:00 NR -16.7431 64.0696 main 774 745 _____P________ -1 -16.7431 64.0696 99 5 226
1870042S15066 1870 5 SI MM NOT_NAMED 1870-02-12 06:00:00 NR -16.9000 63.9000 reunion main 745 730 _____O________ -1 -16.9000 63.9000 99 9.90000 4 226
1870042S15066 1870 5 SI MM NOT_NAMED 1870-02-12 09:00:00 NR -17.0441 63.7491 main 721 701 _____P________ -1 -17.0441 63.7491 99 4 225
1870042S15066 1870 5 SI MM NOT_NAMED 1870-02-12 12:00:00 NR -17.1785 63.6128 main 701 686 _____P________ -1 -17.1785 63.6128 99 4 224
1870042S15066 1870 5 SI MM NOT_NAMED 1870-02-12 15:00:00 NR -17.3071 63.4858 main 686 671 _____P________ -1 -17.3071 63.4858 99 4 223
1870042S15066 1870 5 SI MM NOT_NAMED 1870-02-12 18:00:00 NR -17.4338 63.3627 main 671 642 _____P________ -1 -17.4338 63.3627 99 3 223
1870042S15066 1870 5 SI MM NOT_NAMED 1870-02-12 21:00:00 NR -17.5625 63.2381 main 642 628 _____P________ -1 -17.5625 63.2381 99 4 223
1870042S15066 1870 5 SI MM NOT_NAMED 1870-02-13 00:00:00 NR -17.6972 63.1064 main 628 613 _____P________ -1 -17.6972 63.1064 99 4 223
1870042S15066 1870 5 SI MM NOT_NAMED 1870-02-13 03:00:00 NR -17.8418 62.9622 main 613 584 _____P________ -1 -17.8418 62.9622 99 4 224
1870042S15066 1870 5 SI MM NOT_NAMED 1870-02-13 06:00:00 NR -18.0000 62.8000 reunion main 584 555 _____O________ -1 -18.0000 62.8000 99 9.90000 5 226
1870042S15066 1870 5 SI MM NOT_NAMED 1870-02-13 09:00:00 NR -18.1674 62.6087 main 555 532 _____P________ -1 -18.1674 62.6087 99 5 228
1870042S15066 1870 5 SI MM NOT_NAMED 1870-02-13 12:00:00 NR -18.3453 62.4017 main 532 503 _____P________ -1 -18.3453 62.4017 99 6 228
1870042S15066 1870 5 SI MM NOT_NAMED 1870-02-13 15:00:00 NR -18.5349 62.1802 main 503 475 _____P________ -1 -18.5349 62.1802 99 6 228
1870042S15066 1870 5 SI MM NOT_NAMED 1870-02-13 18:00:00 NR -18.7373 61.9456 main 465 437 _____P________ -1 -18.7373 61.9455 99 6 227
1870042S15066 1870 5 SI MM NOT_NAMED 1870-02-13 21:00:00 NR -18.9539 61.6989 main 433 406 _____P________ -1 -18.9539 61.6989 99 7 227
1870042S15066 1870 5 SI MM NOT_NAMED 1870-02-14 00:00:00 NR -19.1857 61.4417 main 396 369 _____P________ -1 -19.1857 61.4417 99 7 226
1870042S15066 1870 5 SI MM NOT_NAMED 1870-02-14 03:00:00 NR -19.4340 61.1749 main 369 330 _____P________ -1 -19.4340 61.1749 99 7 225
1870042S15066 1870 5 SI MM NOT_NAMED 1870-02-14 06:00:00 NR -19.7000 60.9000 reunion main 330 295 _____O________ -1 -19.7000 60.9000 99 9.90000 7 225
1870042S15066 1870 5 SI MM NOT_NAMED 1870-02-14 09:00:00 NR -19.9602 60.6261 main 294 271 _____P________ -1 -19.9602 60.6261 99 8 224
1870042S15066 1870 5 SI MM NOT_NAMED 1870-02-14 12:00:00 NR -20.2366 60.3422 main 261 240 _____P________ -1 -20.2366 60.3422 99 8 224
1870042S15066 1870 5 SI MM NOT_NAMED 1870-02-14 15:00:00 NR -20.5303 60.0494 main 230 215 _____P________ -1 -20.5303 60.0494 99 8 223
1870042S15066 1870 5 SI MM NOT_NAMED 1870-02-14 18:00:00 NR -20.8425 59.7492 main 205 198 _____P________ -1 -20.8425 59.7492 99 9 221
1870042S15066 1870 5 SI MM NOT_NAMED 1870-02-14 21:00:00 NR -21.1744 59.4429 main 193 183 _____P________ -1 -21.1744 59.4429 99 9 220
1870042S15066 1870 5 SI MM NOT_NAMED 1870-02-15 00:00:00 NR -21.5271 59.1317 main 183 182 _____P________ -1 -21.5271 59.1317 99 9 219
1870042S15066 1870 5 SI MM NOT_NAMED 1870-02-15 03:00:00 NR -21.9019 58.8170 main 193 193 _____P________ -1 -21.9019 58.8170 99 10 217
1870042S15066 1870 5 SI MM NOT_NAMED 1870-02-15 06:00:00 NR -22.3000 58.5000 reunion main 217 217 _____O________ -1 -22.3000 58.5000 99 9.90000 11 215
1870042S15066 1870 5 SI MM NOT_NAMED 1870-02-15 09:00:00 NR -22.7732 58.1495 main 260 260 _____P________ -1 -22.7732 58.1495 99 12 214
1870042S15066 1870 5 SI MM NOT_NAMED 1870-02-15 12:00:00 NR -23.2785 57.7899 main 303 296 _____P________ -1 -23.2785 57.7899 99 12 213
1870042S15066 1870 5 SI MM NOT_NAMED 1870-02-15 15:00:00 NR -23.7999 57.4290 main 324 324 _____P________ -1 -23.7999 57.4290 99 12 212
1870042S15066 1870 5 SI MM NOT_NAMED 1870-02-15 18:00:00 NR -24.3219 57.0749 main 358 358 _____P________ -1 -24.3219 57.0749 99 12 212
1870042S15066 1870 5 SI MM NOT_NAMED 1870-02-15 21:00:00 NR -24.8284 56.7360 main 396 396 _____P________ -1 -24.8284 56.7360 99 12 211
1870042S15066 1870 5 SI MM NOT_NAMED 1870-02-16 00:00:00 NR -25.3040 56.4212 main 443 443 _____P________ -1 -25.3040 56.4212 99 11 211
1870042S15066 1870 5 SI MM NOT_NAMED 1870-02-16 03:00:00 NR -25.7331 56.1395 main 483 483 _____P________ -1 -25.7331 56.1395 99 9 211
1870042S15066 1870 5 SI MM NOT_NAMED 1870-02-16 06:00:00 NR -26.1000 55.9000 reunion main 526 526 _____O________ -1 -26.1000 55.9000 99 9.90000 8 210
1870042S15066 1870 5 SI MM NOT_NAMED 1870-02-16 09:00:00 NR -26.3936 55.7097 main 558 558 _____P________ -1 -26.3936 55.7097 99 6 210
1870042S15066 1870 5 SI MM NOT_NAMED 1870-02-16 12:00:00 NR -26.6196 55.5650 main 581 581 _____P________ -1 -26.6196 55.5650 99 5 209
1870042S15066 1870 5 SI MM NOT_NAMED 1870-02-16 15:00:00 NR -26.7878 55.4599 main 603 603 _____P________ -1 -26.7878 55.4599 99 3 209
1870042S15066 1870 5 SI MM NOT_NAMED 1870-02-16 18:00:00 NR -26.9079 55.3879 main 614 614 _____P________ -1 -26.9079 55.3879 99 2 207
1870042S15066 1870 5 SI MM NOT_NAMED 1870-02-16 21:00:00 NR -26.9895 55.3425 main 626 626 _____P________ -1 -26.9895 55.3425 99 1 209
1870042S15066 1870 5 SI MM NOT_NAMED 1870-02-17 00:00:00 NR -27.0423 55.3172 main 626 626 _____P________ -1 -27.0423 55.3172 99 1 207
1870042S15066 1870 5 SI MM NOT_NAMED 1870-02-17 03:00:00 NR -27.0760 55.3053 main 637 637 _____P________ -1 -27.0760 55.3053 99 1 0
1870042S15066 1870 5 SI MM NOT_NAMED 1870-02-17 06:00:00 NR -27.1000 55.3000 reunion main 637 _____O________ -1 -27.1000 55.3000 99 9.90000 0 0

IBTrACS Databaseについて

本データベースは、米国NOAAが公開する1842年以降の世界の熱帯低気圧のベストトラックデータアーカイブInternational Best Track Archive for Climate Stewardship (IBTrACS)を、ウェブで閲覧しやすい形式に変換したものです。

最終更新日:2021-12-06